createdAt,value
2022-12-23T00:01:30.688Z,4.40
2022-12-23T00:04:00.173Z,4.47
2022-12-23T00:06:28.992Z,4.80
2022-12-23T00:08:59.398Z,4.63
2022-12-23T00:11:30.310Z,4.68
2022-12-23T00:14:21.587Z,4.70
2022-12-23T00:16:51.528Z,4.10
2022-12-23T00:19:20.381Z,4.20
2022-12-23T00:21:49.553Z,4.38
2022-12-23T00:24:18.207Z,4.40
2022-12-23T00:26:48.358Z,4.10
2022-12-23T00:29:17.030Z,4.45
2022-12-23T00:31:45.712Z,3.85
2022-12-23T00:34:14.529Z,5.60
2022-12-23T00:36:43.149Z,4.47
2022-12-23T00:39:31.052Z,4.82
2022-12-23T00:42:18.531Z,4.72
2022-12-23T00:44:47.550Z,4.57
2022-12-23T00:47:30.058Z,4.53
2022-12-23T00:49:58.878Z,4.50
2022-12-23T00:52:27.561Z,4.65
2022-12-23T00:54:56.101Z,4.30
2022-12-23T00:57:26.163Z,4.07
2022-12-23T00:59:54.825Z,4.32
2022-12-23T01:02:41.258Z,4.93
2022-12-23T01:05:37.632Z,4.22
2022-12-23T01:08:06.777Z,4.50
2022-12-23T01:10:36.265Z,4.60
2022-12-23T01:13:07.123Z,4.25
2022-12-23T01:15:36.040Z,4.57
2022-12-23T01:18:04.661Z,4.05
2022-12-23T01:20:33.362Z,4.22
2022-12-23T01:23:02.241Z,3.80
2022-12-23T01:25:31.858Z,3.83
2022-12-23T01:28:00.719Z,3.92
2022-12-23T01:30:30.878Z,3.78
2022-12-23T01:32:59.645Z,4.03
2022-12-23T01:35:28.351Z,3.50
2022-12-23T01:37:57.015Z,4.10
2022-12-23T01:40:25.742Z,3.67
2022-12-23T01:42:53.337Z,4.07
2022-12-23T01:45:22.821Z,3.60
2022-12-23T01:47:54.265Z,3.65
2022-12-23T01:50:25.307Z,3.60
2022-12-23T01:53:07.755Z,3.58
2022-12-23T01:55:38.699Z,3.83
2022-12-23T01:58:10.286Z,3.53
2022-12-23T02:00:57.076Z,3.67
2022-12-23T02:03:45.505Z,3.60
2022-12-23T02:06:34.429Z,3.67
2022-12-23T02:09:18.653Z,3.28
2022-12-23T02:12:06.091Z,3.10
2022-12-23T02:14:58.581Z,3.53
2022-12-23T02:17:28.406Z,3.10
2022-12-23T02:20:13.643Z,3.35
2022-12-23T02:22:53.427Z,3.08
2022-12-23T02:25:42.724Z,3.47
2022-12-23T02:28:21.689Z,3.13
2022-12-23T02:30:55.976Z,3.70
2022-12-23T02:33:37.879Z,3.50
2022-12-23T02:36:18.709Z,3.60
2022-12-23T02:38:50.214Z,3.63
2022-12-23T02:41:21.909Z,3.72
2022-12-23T02:43:52.380Z,3.85
2022-12-23T02:46:24.722Z,3.20
2022-12-23T02:48:55.656Z,3.72
2022-12-23T02:51:26.811Z,3.08
2022-12-23T02:53:57.365Z,3.45
2022-12-23T02:56:28.083Z,3.58
2022-12-23T02:58:58.785Z,3.53
2022-12-23T03:01:29.849Z,3.88
2022-12-23T03:03:59.114Z,3.45
2022-12-23T03:06:30.509Z,3.60
2022-12-23T03:09:00.324Z,3.33
2022-12-23T03:11:40.121Z,3.85
2022-12-23T03:14:25.280Z,3.65
2022-12-23T03:17:00.677Z,3.58
2022-12-23T03:19:32.881Z,3.33
2022-12-23T03:22:04.144Z,3.20
2022-12-23T03:24:35.389Z,3.20
2022-12-23T03:27:06.803Z,3.40
2022-12-23T03:29:38.970Z,2.72
2022-12-23T03:32:10.097Z,3.10
2022-12-23T03:34:41.166Z,3.08
2022-12-23T03:37:11.801Z,3.28
2022-12-23T03:39:43.023Z,3.50
2022-12-23T03:42:13.997Z,3.10
2022-12-23T03:45:03.596Z,3.22
2022-12-23T03:47:37.941Z,2.80
2022-12-23T03:50:08.525Z,3.38
2022-12-23T03:52:39.671Z,3.05
2022-12-23T03:55:09.771Z,2.88
2022-12-23T03:57:41.096Z,3.40
2022-12-23T04:00:10.364Z,3.15
2022-12-23T04:02:43.709Z,3.10
2022-12-23T04:05:17.650Z,3.53
2022-12-23T04:07:48.879Z,3.17
2022-12-23T04:10:18.115Z,3.40
2022-12-23T04:12:46.885Z,3.28
2022-12-23T04:15:15.559Z,3.65
2022-12-23T04:17:45.633Z,3.45
2022-12-23T04:20:14.480Z,2.90
2022-12-23T04:22:43.809Z,2.13
2022-12-23T04:25:12.713Z,1.35
2022-12-23T04:27:41.547Z,0.70
2022-12-23T04:30:11.873Z,0.50
2022-12-23T04:32:40.472Z,0.40
2022-12-23T04:35:11.769Z,0.50
2022-12-23T04:37:40.666Z,0.55
2022-12-23T04:40:09.909Z,0.80
2022-12-23T04:42:38.534Z,0.70
2022-12-23T04:45:07.742Z,0.77
2022-12-23T04:47:36.561Z,0.77
2022-12-23T04:50:05.413Z,0.60
2022-12-23T04:52:35.384Z,0.55
2022-12-23T04:55:03.993Z,0.52
2022-12-23T04:57:32.638Z,0.40
2022-12-23T05:00:01.272Z,0.50
2022-12-23T05:02:30.046Z,0.40
2022-12-23T05:04:58.798Z,0.40
2022-12-23T05:07:27.515Z,0.50
2022-12-23T05:10:01.913Z,0.57
2022-12-23T05:12:31.162Z,0.40
2022-12-23T05:14:59.818Z,0.30
2022-12-23T05:17:28.369Z,0.47
2022-12-23T05:19:57.103Z,0.55
2022-12-23T05:22:25.771Z,0.63
2022-12-23T05:24:54.494Z,0.68
2022-12-23T05:27:24.463Z,0.55
2022-12-23T05:29:53.091Z,0.60
2022-12-23T05:32:21.691Z,0.70
2022-12-23T05:34:50.404Z,0.77
2022-12-23T05:37:19.081Z,0.80
2022-12-23T05:39:47.847Z,0.82
2022-12-23T05:42:19.453Z,0.65
2022-12-23T05:44:49.626Z,0.95
2022-12-23T05:47:18.582Z,1.05
2022-12-23T05:49:47.221Z,1.00
2022-12-23T05:52:15.905Z,0.52
2022-12-23T05:54:44.548Z,0.60
2022-12-23T05:57:13.266Z,0.50
2022-12-23T05:59:41.944Z,0.40
2022-12-23T06:02:12.136Z,0.40
2022-12-23T06:04:40.894Z,0.35
2022-12-23T06:07:09.891Z,0.50
2022-12-23T06:09:38.586Z,0.45
2022-12-23T06:12:07.576Z,0.40
2022-12-23T06:14:36.159Z,0.50
2022-12-23T06:17:04.898Z,0.30
2022-12-23T06:19:35.394Z,0.47
2022-12-23T06:22:04.201Z,0.40
2022-12-23T06:24:32.850Z,0.40
2022-12-23T06:27:01.581Z,0.40
2022-12-23T06:29:30.740Z,0.43
2022-12-23T06:31:59.589Z,0.50
2022-12-23T06:34:28.261Z,0.80
2022-12-23T06:36:58.726Z,0.38
2022-12-23T06:39:27.486Z,0.50
2022-12-23T06:41:56.100Z,0.60
2022-12-23T06:44:24.768Z,0.60
2022-12-23T06:46:53.408Z,0.90
2022-12-23T06:49:22.007Z,1.38
2022-12-23T06:51:50.716Z,0.82
2022-12-23T06:54:21.184Z,1.30
2022-12-23T06:56:50.001Z,0.90
2022-12-23T06:59:18.786Z,0.85
2022-12-23T07:01:47.504Z,0.82
2022-12-23T07:04:16.266Z,0.60
2022-12-23T07:06:44.873Z,0.50
2022-12-23T07:09:13.520Z,0.40
2022-12-23T07:11:43.519Z,0.50
2022-12-23T07:14:12.490Z,0.60
2022-12-23T07:16:41.107Z,1.13
2022-12-23T07:19:10.124Z,0.98
2022-12-23T07:21:38.817Z,0.60
2022-12-23T07:24:08.250Z,0.45
2022-12-23T07:26:36.953Z,0.50
2022-12-23T07:29:07.721Z,0.60
2022-12-23T07:31:40.796Z,0.50
2022-12-23T07:34:10.035Z,0.50
2022-12-23T07:36:38.834Z,0.40
2022-12-23T07:39:07.513Z,0.50
2022-12-23T07:41:36.299Z,0.50
2022-12-23T07:44:09.973Z,0.40
2022-12-23T07:46:38.751Z,0.57
2022-12-23T07:49:07.516Z,0.47
2022-12-23T07:51:36.122Z,0.50
2022-12-23T07:54:04.819Z,0.50
2022-12-23T07:56:33.478Z,0.40
2022-12-23T07:59:02.345Z,0.63
2022-12-23T08:01:32.469Z,0.32
2022-12-23T08:04:01.250Z,0.55
2022-12-23T08:06:29.930Z,0.60
2022-12-23T08:08:58.598Z,0.50
2022-12-23T08:11:27.835Z,0.63
2022-12-23T08:13:56.494Z,0.50
2022-12-23T08:16:25.195Z,0.50
2022-12-23T08:18:55.174Z,0.47
2022-12-23T08:21:23.905Z,0.50
2022-12-23T08:23:53.195Z,0.50
2022-12-23T08:26:22.669Z,0.50
2022-12-23T08:28:53.564Z,0.50
2022-12-23T08:31:23.395Z,0.40
2022-12-23T08:33:53.071Z,0.50
2022-12-23T08:36:24.002Z,0.50
2022-12-23T08:38:54.029Z,0.47
2022-12-23T08:41:24.727Z,0.50
2022-12-23T08:43:53.565Z,0.45
2022-12-23T08:46:24.190Z,0.60
2022-12-23T08:48:53.221Z,0.50
2022-12-23T08:51:24.011Z,0.60
2022-12-23T08:53:59.616Z,0.60
2022-12-23T08:56:30.200Z,0.50
2022-12-23T08:58:59.449Z,0.60
2022-12-23T09:01:29.164Z,0.50
2022-12-23T09:03:58.369Z,0.55
2022-12-23T09:06:30.581Z,0.40
2022-12-23T09:08:59.823Z,0.60
2022-12-23T09:11:29.411Z,0.52
2022-12-23T09:13:58.449Z,0.70
2022-12-23T09:16:27.323Z,0.50
2022-12-23T09:18:56.016Z,0.50
2022-12-23T09:21:25.329Z,0.50
2022-12-23T09:23:55.637Z,0.60
2022-12-23T09:26:25.966Z,0.57
2022-12-23T09:28:54.847Z,0.50
2022-12-23T09:31:24.739Z,0.60
2022-12-23T09:33:55.693Z,0.63
2022-12-23T09:36:24.600Z,0.63
2022-12-23T09:38:58.509Z,0.50
2022-12-23T09:41:33.893Z,0.88
2022-12-23T09:44:13.890Z,0.50
2022-12-23T09:46:48.137Z,0.60
2022-12-23T09:49:20.655Z,0.65
2022-12-23T09:51:50.429Z,0.60
2022-12-23T09:54:23.008Z,0.50
2022-12-23T09:56:54.490Z,0.50
2022-12-23T09:59:28.540Z,0.65
2022-12-23T10:02:00.464Z,0.55
2022-12-23T10:04:34.919Z,0.60
2022-12-23T10:07:21.595Z,0.60
2022-12-23T10:09:53.450Z,0.85
2022-12-23T10:12:32.886Z,0.80
2022-12-23T10:15:08.601Z,1.48
2022-12-23T10:17:38.721Z,1.00
2022-12-23T10:20:09.071Z,2.65
2022-12-23T10:22:40.049Z,1.27
2022-12-23T10:25:16.098Z,1.20
2022-12-23T10:27:46.550Z,1.70
2022-12-23T10:30:42.547Z,1.40
2022-12-23T10:33:06.715Z,1.33
2022-12-23T10:35:49.663Z,1.30
2022-12-23T10:38:22.978Z,1.50
2022-12-23T10:40:56.633Z,1.40
2022-12-23T10:43:28.761Z,1.13
2022-12-23T10:46:00.562Z,1.63
2022-12-23T10:48:36.018Z,1.58
2022-12-23T10:51:06.618Z,1.10
2022-12-23T10:53:37.316Z,1.30
2022-12-23T10:56:10.352Z,1.10
2022-12-23T10:58:40.337Z,1.20
2022-12-23T11:01:16.196Z,1.42
2022-12-23T11:03:50.902Z,1.42
2022-12-23T11:06:19.721Z,1.35
2022-12-23T11:08:48.879Z,1.17
2022-12-23T11:11:18.946Z,1.20
2022-12-23T11:13:51.073Z,1.30
2022-12-23T11:16:23.101Z,1.42
2022-12-23T11:18:56.177Z,1.00
2022-12-23T11:21:24.987Z,1.20
2022-12-23T11:24:17.964Z,1.90
2022-12-23T11:26:50.049Z,1.08
2022-12-23T11:29:24.353Z,1.08
2022-12-23T11:31:53.573Z,1.60
2022-12-23T11:34:23.409Z,2.38
2022-12-23T11:37:01.897Z,1.10
2022-12-23T11:39:34.985Z,0.95
2022-12-23T11:42:07.153Z,1.00
2022-12-23T11:44:37.261Z,1.27
2022-12-23T11:47:20.689Z,1.20
2022-12-23T11:49:50.484Z,1.23
2022-12-23T11:52:21.036Z,1.10
2022-12-23T11:54:54.716Z,1.00
2022-12-23T11:57:28.477Z,0.98
2022-12-23T11:59:59.264Z,1.02
2022-12-23T12:02:33.179Z,1.00
2022-12-23T12:05:03.207Z,0.80
2022-12-23T12:07:32.683Z,0.80
2022-12-23T12:10:02.100Z,0.90
2022-12-23T12:12:32.744Z,1.10
2022-12-23T12:15:02.242Z,1.17
2022-12-23T12:17:34.419Z,0.80
2022-12-23T12:20:06.226Z,1.00
2022-12-23T12:22:38.252Z,1.20
2022-12-23T12:25:12.973Z,1.10
2022-12-23T12:27:45.201Z,0.90
2022-12-23T12:30:17.282Z,0.73
2022-12-23T12:32:49.686Z,0.90
2022-12-23T12:35:20.437Z,0.70
2022-12-23T12:37:53.064Z,1.02
2022-12-23T12:40:28.088Z,0.93
2022-12-23T12:43:00.335Z,0.93
2022-12-23T12:45:35.005Z,1.10
2022-12-23T12:48:18.209Z,0.65
2022-12-23T12:50:52.968Z,0.80
2022-12-23T12:53:23.200Z,0.80
2022-12-23T12:55:55.128Z,0.95
2022-12-23T12:58:26.284Z,1.00
2022-12-23T13:01:00.171Z,1.02
2022-12-23T13:03:35.476Z,1.05
2022-12-23T13:06:12.883Z,0.80
2022-12-23T13:08:50.349Z,0.90
2022-12-23T13:11:28.200Z,0.90
2022-12-23T13:14:02.660Z,1.10
2022-12-23T13:16:36.373Z,1.10
2022-12-23T13:19:07.743Z,1.00
2022-12-23T13:21:39.597Z,1.02
2022-12-23T13:24:14.715Z,0.90
2022-12-23T13:26:49.033Z,1.00
2022-12-23T13:29:32.722Z,1.27
2022-12-23T13:32:05.081Z,0.90
2022-12-23T13:34:40.359Z,1.33
2022-12-23T13:37:17.070Z,1.00
2022-12-23T13:39:49.877Z,1.45
2022-12-23T13:42:23.298Z,1.30
2022-12-23T13:44:53.794Z,1.15
2022-12-23T13:47:26.417Z,1.23
2022-12-23T13:49:59.470Z,1.10
2022-12-23T13:52:35.798Z,1.20
2022-12-23T13:55:11.648Z,1.00
2022-12-23T13:57:47.339Z,1.30
2022-12-23T14:00:27.087Z,1.17
2022-12-23T14:03:07.349Z,1.23
2022-12-23T14:05:37.569Z,1.20
2022-12-23T14:08:07.789Z,1.20
2022-12-23T14:10:37.285Z,1.10
2022-12-23T14:13:07.787Z,1.05
2022-12-23T14:15:48.903Z,0.88
2022-12-23T14:18:25.520Z,1.00
2022-12-23T14:20:57.118Z,1.05
2022-12-23T14:23:31.969Z,0.95
2022-12-23T14:26:09.003Z,0.90
2022-12-23T14:28:55.781Z,0.90
2022-12-23T14:31:37.048Z,0.80
2022-12-23T14:34:07.321Z,0.90
2022-12-23T14:36:36.141Z,0.90
2022-12-23T14:39:38.868Z,1.10
2022-12-23T14:42:10.853Z,1.02
2022-12-23T14:44:46.453Z,1.13
2022-12-23T14:47:33.654Z,0.80
2022-12-23T14:50:17.167Z,1.10
2022-12-23T14:52:49.849Z,0.95
2022-12-23T14:55:36.409Z,1.02
2022-12-23T14:58:09.963Z,0.80
2022-12-23T15:00:46.924Z,0.80
2022-12-23T15:03:18.027Z,1.10
2022-12-23T15:05:46.960Z,0.80
2022-12-23T15:08:21.928Z,1.08
2022-12-23T15:10:50.775Z,1.30
2022-12-23T15:13:20.136Z,1.30
2022-12-23T15:15:58.986Z,1.05
2022-12-23T15:18:31.297Z,1.00
2022-12-23T15:21:01.205Z,0.70
2022-12-23T15:23:29.995Z,1.30
2022-12-23T15:26:00.139Z,1.05
2022-12-23T15:28:34.243Z,1.02
2022-12-23T15:31:03.018Z,0.80
2022-12-23T15:34:02.457Z,1.20
2022-12-23T15:36:30.707Z,1.70
2022-12-23T15:39:00.579Z,1.50
2022-12-23T15:41:29.543Z,1.40
2022-12-23T15:43:59.386Z,1.73
2022-12-23T15:46:30.482Z,1.63
2022-12-23T15:49:01.342Z,1.10
2022-12-23T15:51:58.348Z,1.30
2022-12-23T15:54:22.993Z,1.02
2022-12-23T15:56:53.759Z,1.10
2022-12-23T15:59:24.637Z,1.30
2022-12-23T16:01:53.815Z,1.25
2022-12-23T16:04:27.933Z,1.10
2022-12-23T16:06:57.234Z,1.10
2022-12-23T16:09:31.931Z,1.13
2022-12-23T16:12:01.521Z,1.25
2022-12-23T16:14:34.981Z,1.10
2022-12-23T16:17:14.548Z,1.25
2022-12-23T16:19:45.595Z,1.30
2022-12-23T16:22:27.519Z,1.08
2022-12-23T16:25:00.518Z,1.38
2022-12-23T16:27:34.295Z,1.25
2022-12-23T16:30:04.900Z,1.38
2022-12-23T16:32:44.934Z,1.63
2022-12-23T16:35:25.751Z,1.38
2022-12-23T16:37:54.786Z,1.30
2022-12-23T16:40:24.499Z,1.50
2022-12-23T16:42:53.285Z,1.05
2022-12-23T16:45:22.190Z,1.33
2022-12-23T16:47:52.975Z,1.45
2022-12-23T16:50:23.194Z,1.73
2022-12-23T16:52:51.833Z,1.70
2022-12-23T16:55:21.459Z,1.40
2022-12-23T16:57:50.611Z,1.75
2022-12-23T17:00:20.817Z,1.58
2022-12-23T17:02:49.825Z,1.45
2022-12-23T17:05:18.945Z,1.75
2022-12-23T17:07:49.219Z,1.85
2022-12-23T17:10:19.491Z,2.05
2022-12-23T17:12:48.786Z,2.03
2022-12-23T17:15:18.764Z,1.48
2022-12-23T17:17:47.580Z,1.45
2022-12-23T17:20:16.450Z,1.75
2022-12-23T17:22:45.685Z,1.20
2022-12-23T17:25:19.830Z,1.60
2022-12-23T17:27:50.281Z,1.33
2022-12-23T17:30:19.549Z,1.60
2022-12-23T17:32:50.646Z,1.70
2022-12-23T17:35:20.078Z,1.67
2022-12-23T17:37:49.116Z,1.60
2022-12-23T17:40:19.638Z,2.17
2022-12-23T17:42:49.400Z,1.70
2022-12-23T17:45:24.478Z,1.65
2022-12-23T17:47:53.450Z,1.50
2022-12-23T17:50:22.526Z,1.60
2022-12-23T17:52:52.423Z,1.50
2022-12-23T17:55:24.762Z,1.40
2022-12-23T17:57:53.533Z,1.33
2022-12-23T18:00:31.973Z,1.48
2022-12-23T18:03:02.391Z,1.40
2022-12-23T18:05:31.956Z,1.95
2022-12-23T18:08:01.654Z,1.70
2022-12-23T18:10:34.617Z,1.70
2022-12-23T18:13:04.720Z,1.52
2022-12-23T18:15:35.733Z,1.77
2022-12-23T18:18:04.611Z,2.00
2022-12-23T18:20:33.552Z,1.80
2022-12-23T18:23:02.704Z,1.70
2022-12-23T18:25:32.705Z,1.70
2022-12-23T18:28:01.397Z,1.65
2022-12-23T18:30:30.254Z,4.43
2022-12-23T18:32:58.844Z,6.45
2022-12-23T18:35:29.369Z,5.85
2022-12-23T18:37:58.239Z,4.18
2022-12-23T18:40:32.538Z,3.42
2022-12-23T18:43:03.733Z,5.25
2022-12-23T18:45:34.068Z,2.65
2022-12-23T18:48:03.352Z,1.75
2022-12-23T18:50:32.621Z,2.00
2022-12-23T18:53:01.550Z,1.60
2022-12-23T18:55:31.311Z,1.70
2022-12-23T18:58:00.827Z,1.02
2022-12-23T19:00:33.584Z,1.42
2022-12-23T19:03:02.391Z,1.50
2022-12-23T19:05:32.856Z,4.15
2022-12-23T19:08:02.091Z,2.22
2022-12-23T19:10:32.859Z,2.20
2022-12-23T19:13:01.906Z,1.63
2022-12-23T19:15:33.148Z,2.33
2022-12-23T19:18:01.942Z,1.88
2022-12-23T19:20:30.756Z,1.70
2022-12-23T19:22:59.546Z,1.70
2022-12-23T19:25:28.313Z,2.05
2022-12-23T19:27:57.089Z,1.30
2022-12-23T19:30:25.765Z,1.15
2022-12-23T19:32:56.027Z,1.67
2022-12-23T19:35:24.792Z,1.38
2022-12-23T19:37:53.377Z,1.88
2022-12-23T19:40:22.057Z,1.25
2022-12-23T19:42:50.658Z,1.75
2022-12-23T19:45:19.395Z,1.55
2022-12-23T19:47:48.084Z,1.42
2022-12-23T19:50:19.030Z,1.60
2022-12-23T19:52:47.677Z,1.50
2022-12-23T19:55:16.462Z,1.23
2022-12-23T19:57:45.218Z,1.65
2022-12-23T20:00:15.969Z,4.55
2022-12-23T20:02:45.394Z,3.15
2022-12-23T20:05:14.025Z,1.95
2022-12-23T20:07:44.088Z,2.00
2022-12-23T20:10:13.276Z,1.48
2022-12-23T20:12:41.944Z,1.50
2022-12-23T20:15:11.449Z,1.70
2022-12-23T20:17:40.452Z,1.80
2022-12-23T20:20:09.702Z,1.73
2022-12-23T20:22:38.405Z,2.10
2022-12-23T20:25:09.097Z,1.60
2022-12-23T20:27:38.841Z,1.90
2022-12-23T20:30:08.171Z,1.88
2022-12-23T20:32:36.785Z,1.40
2022-12-23T20:35:05.694Z,1.20
2022-12-23T20:37:34.454Z,1.20
2022-12-23T20:40:03.860Z,1.27
2022-12-23T20:42:33.997Z,1.58
2022-12-23T20:45:02.700Z,2.20
2022-12-23T20:47:31.330Z,1.55
2022-12-23T20:50:00.033Z,2.17
2022-12-23T20:52:28.713Z,2.03
2022-12-23T20:54:57.692Z,1.70
2022-12-23T20:57:26.715Z,1.60
2022-12-23T20:59:57.271Z,1.70
2022-12-23T21:02:26.093Z,1.30
2022-12-23T21:04:54.857Z,1.50
2022-12-23T21:07:26.250Z,1.33
2022-12-23T21:09:54.914Z,1.70
2022-12-23T21:12:23.583Z,1.55
2022-12-23T21:14:52.245Z,1.50
2022-12-23T21:17:23.919Z,1.38
2022-12-23T21:19:52.834Z,1.08
2022-12-23T21:22:21.497Z,1.10
2022-12-23T21:24:50.195Z,1.20
2022-12-23T21:27:18.795Z,1.48
2022-12-23T21:29:47.482Z,1.40
2022-12-23T21:32:16.113Z,1.55
2022-12-23T21:34:46.080Z,1.00
2022-12-23T21:37:14.879Z,1.38
2022-12-23T21:39:43.517Z,1.52
2022-12-23T21:42:12.217Z,1.50
2022-12-23T21:44:40.910Z,1.15
2022-12-23T21:47:09.737Z,1.27
2022-12-23T21:49:38.312Z,1.33
2022-12-23T21:52:08.525Z,1.20
2022-12-23T21:54:37.181Z,1.55
2022-12-23T21:57:05.939Z,1.58
2022-12-23T21:59:35.437Z,1.60
2022-12-23T22:02:04.291Z,1.63
2022-12-23T22:04:32.961Z,1.33
2022-12-23T22:07:01.675Z,1.80
2022-12-23T22:09:32.761Z,1.40
2022-12-23T22:12:01.500Z,1.48
2022-12-23T22:14:30.197Z,1.55
2022-12-23T22:16:58.934Z,1.20
2022-12-23T22:19:27.650Z,1.20
2022-12-23T22:21:56.334Z,1.45
2022-12-23T22:24:25.052Z,1.05
2022-12-23T22:26:55.076Z,1.40
2022-12-23T22:29:23.727Z,1.30
2022-12-23T22:31:53.648Z,1.45
2022-12-23T22:34:23.261Z,1.50
2022-12-23T22:36:52.181Z,1.38
2022-12-23T22:39:22.151Z,1.30
2022-12-23T22:41:51.563Z,1.00
2022-12-23T22:44:21.848Z,1.40
2022-12-23T22:46:50.667Z,1.20
2022-12-23T22:49:19.473Z,1.33
2022-12-23T22:51:48.109Z,1.27
2022-12-23T22:54:16.801Z,1.20
2022-12-23T22:56:46.801Z,1.20
2022-12-23T22:59:22.696Z,1.38
2022-12-23T23:01:51.902Z,1.30
2022-12-23T23:04:20.813Z,1.15
2022-12-23T23:06:49.603Z,1.17
2022-12-23T23:09:19.556Z,1.33
2022-12-23T23:11:48.177Z,1.45
2022-12-23T23:14:16.743Z,1.20
2022-12-23T23:16:46.784Z,1.00
2022-12-23T23:19:16.496Z,1.20
2022-12-23T23:21:45.201Z,1.25
2022-12-23T23:24:13.867Z,1.40
2022-12-23T23:26:42.644Z,1.10
2022-12-23T23:29:11.290Z,1.15
2022-12-23T23:31:42.507Z,1.10
2022-12-23T23:34:13.308Z,1.00
2022-12-23T23:36:42.065Z,1.30
2022-12-23T23:39:10.960Z,1.30
2022-12-23T23:41:41.026Z,1.15
2022-12-23T23:44:09.901Z,1.00
2022-12-23T23:46:38.637Z,1.20
2022-12-23T23:49:07.505Z,1.30
2022-12-23T23:51:37.529Z,1.20
2022-12-23T23:54:06.294Z,1.40
2022-12-23T23:56:38.549Z,1.38
2022-12-23T23:59:07.916Z,1.27
